Time;durP1;ratioP1;P1;durP2;ratioP2;P2;SDS_P1;SDS_P2;PMS_P1;PMS_P2;Temp;Humidity;BMP_temperature;BMP_pressure;BME280_temperature;BME280_humidity;BME280_pressure;Samples;Min_cycle;Max_cycle;Signal;HPM_P1;HPM_P2
2022/06/11 00:00:55;;;;;;;13.87;10.03;;;12.50;99.90;;;;;;4408230;28;658671;-69
2022/06/11 00:03:42;;;;;;;15.13;9.63;;;12.40;99.90;;;;;;4430356;28;659481;-69
2022/06/11 00:06:30;;;;;;;16.47;9.17;;;12.30;99.90;;;;;;4429889;28;657375;-69
2022/06/11 00:09:18;;;;;;;14.47;8.47;;;12.30;99.90;;;;;;4400284;28;658644;-69
2022/06/11 00:12:06;;;;;;;20.17;9.88;;;12.30;99.90;;;;;;4413527;28;658365;-69
2022/06/11 00:14:54;;;;;;;13.17;10.07;;;12.30;99.90;;;;;;4427072;28;658524;-69
2022/06/11 00:17:41;;;;;;;17.33;10.30;;;12.30;99.90;;;;;;4402992;28;659306;-69
2022/06/11 00:20:29;;;;;;;17.63;11.93;;;12.10;99.90;;;;;;4426264;28;658760;-69
2022/06/11 00:23:16;;;;;;;18.33;13.60;;;12.20;99.90;;;;;;4407333;28;659110;-69
2022/06/11 00:26:03;;;;;;;17.97;12.53;;;12.20;99.90;;;;;;4426111;28;659208;-69
2022/06/11 00:28:51;;;;;;;23.17;10.53;;;12.10;99.90;;;;;;4406781;28;658873;-69
2022/06/11 00:31:39;;;;;;;14.13;10.27;;;12.10;99.90;;;;;;4429353;28;659607;-69
2022/06/11 00:34:27;;;;;;;25.50;11.40;;;12.20;99.90;;;;;;4407710;28;659043;-69
2022/06/11 00:37:14;;;;;;;17.97;11.20;;;12.30;99.90;;;;;;4422095;28;658698;-70
2022/06/11 00:40:02;;;;;;;16.07;10.50;;;12.30;99.90;;;;;;4406462;28;658604;-70
2022/06/11 00:42:49;;;;;;;13.47;11.00;;;12.30;99.90;;;;;;4422725;28;658938;-69
2022/06/11 00:45:39;;;;;;;16.37;10.87;;;12.40;99.90;;;;;;4404335;28;658791;-70
2022/06/11 00:48:29;;;;;;;17.20;10.53;;;12.40;99.90;;;;;;4401304;28;658563;-70
2022/06/11 00:51:20;;;;;;;17.40;10.97;;;12.40;99.90;;;;;;4404608;28;659197;-70
2022/06/11 00:54:11;;;;;;;16.40;10.63;;;12.40;99.90;;;;;;4400808;28;659733;-70
2022/06/11 00:56:59;;;;;;;17.70;10.57;;;12.40;99.90;;;;;;4397465;28;658663;-70
2022/06/11 00:59:48;;;;;;;14.50;10.20;;;12.50;99.90;;;;;;4401959;28;659899;-70
2022/06/11 01:02:37;;;;;;;15.23;10.00;;;12.50;99.90;;;;;;4401851;28;658847;-70
2022/06/11 01:05:27;;;;;;;20.40;9.70;;;12.50;99.90;;;;;;4420660;28;659307;-70
2022/06/11 01:08:26;;;;;;;15.90;11.80;;;12.60;99.90;;;;;;4399897;28;657332;-70
2022/06/11 01:11:52;;;;;;;14.97;11.23;;;12.50;99.90;;;;;;4398769;28;658641;-70
2022/06/11 01:14:44;;;;;;;19.83;11.57;;;12.50;99.90;;;;;;4399133;28;658994;-70
2022/06/11 01:17:34;;;;;;;17.80;12.43;;;12.50;99.90;;;;;;4392321;28;658727;-70
2022/06/11 01:20:39;;;;;;;14.50;12.30;;;12.60;99.90;;;;;;4401398;28;659073;-70
2022/06/11 01:23:56;;;;;;;16.37;11.33;;;12.60;99.90;;;;;;4399785;28;658483;-70
2022/06/11 01:26:59;;;;;;;16.10;10.80;;;12.60;99.90;;;;;;4401057;28;659032;-70
2022/06/11 01:29:55;;;;;;;13.97;10.03;;;12.50;99.90;;;;;;4381134;28;659838;-70
2022/06/11 01:32:46;;;;;;;13.17;9.97;;;12.50;99.90;;;;;;4377526;28;659510;-70
2022/06/11 01:35:39;;;;;;;12.93;10.10;;;12.50;99.90;;;;;;4398742;28;657875;-70
2022/06/11 01:38:29;;;;;;;16.10;10.20;;;12.50;99.90;;;;;;4373807;28;659574;-70
2022/06/11 01:41:23;;;;;;;13.77;10.13;;;12.50;99.90;;;;;;4402335;28;658902;-70
2022/06/11 01:44:11;;;;;;;16.73;10.27;;;12.50;99.90;;;;;;4384240;28;659475;-70
2022/06/11 01:47:01;;;;;;;20.13;10.53;;;12.50;99.90;;;;;;4426812;28;659023;-70
2022/06/11 01:49:49;;;;;;;13.83;10.20;;;12.60;99.90;;;;;;4404971;28;659542;-70
2022/06/11 01:53:17;;;;;;;12.53;10.67;;;12.60;99.90;;;;;;4405144;28;658223;-70
2022/06/11 01:56:14;;;;;;;15.13;10.60;;;12.60;99.90;;;;;;4398491;28;658810;-70
2022/06/11 01:59:12;;;;;;;13.27;10.67;;;12.60;99.90;;;;;;4403130;28;659036;-70
2022/06/11 02:02:08;;;;;;;18.20;11.53;;;12.70;99.90;;;;;;4387665;28;659173;-70
2022/06/11 02:05:00;;;;;;;19.27;13.57;;;12.70;99.90;;;;;;4374061;28;658308;-70
2022/06/11 02:07:49;;;;;;;18.13;13.63;;;12.70;99.90;;;;;;4385458;28;659551;-70
2022/06/11 02:10:39;;;;;;;21.93;12.60;;;12.70;99.90;;;;;;4390426;28;658922;-70
2022/06/11 02:13:28;;;;;;;19.33;12.13;;;12.80;99.90;;;;;;4389141;28;659663;-70
2022/06/11 02:16:18;;;;;;;21.30;11.90;;;12.80;99.90;;;;;;4401936;28;658922;-70
2022/06/11 02:19:08;;;;;;;15.73;11.13;;;12.80;99.90;;;;;;4391577;28;658724;-70
2022/06/11 02:21:58;;;;;;;18.07;11.83;;;12.80;99.90;;;;;;4389515;28;658940;-70
2022/06/11 02:24:49;;;;;;;16.40;11.43;;;12.80;99.90;;;;;;4403078;28;659013;-70
2022/06/11 02:27:36;;;;;;;18.77;12.17;;;12.80;99.90;;;;;;4392352;28;660437;-70
2022/06/11 02:30:25;;;;;;;19.97;11.93;;;12.70;99.90;;;;;;4410928;28;658764;-70
2022/06/11 02:33:12;;;;;;;14.47;10.83;;;12.80;99.90;;;;;;4387449;28;659473;-70
2022/06/11 02:36:06;;;;;;;15.53;11.50;;;12.80;99.90;;;;;;4410647;28;658807;-70
2022/06/11 02:38:53;;;;;;;15.47;10.60;;;12.90;99.90;;;;;;4385225;28;659577;-70
2022/06/11 02:41:42;;;;;;;14.63;10.57;;;12.80;99.90;;;;;;4387300;28;658629;-70
2022/06/11 02:44:29;;;;;;;13.27;9.90;;;12.80;99.90;;;;;;4413691;28;658443;-70
2022/06/11 02:47:16;;;;;;;13.87;9.53;;;12.80;99.90;;;;;;4392155;28;657971;-70
2022/06/11 02:50:04;;;;;;;14.13;10.00;;;12.80;99.90;;;;;;4407349;28;658510;-70
2022/06/11 02:52:52;;;;;;;19.07;10.13;;;12.70;99.90;;;;;;4381994;28;658780;-70
2022/06/11 02:55:40;;;;;;;23.80;10.70;;;12.60;99.90;;;;;;4410844;28;659124;-71
2022/06/11 02:58:27;;;;;;;16.80;9.60;;;12.70;99.90;;;;;;4388016;28;658924;-70
2022/06/11 03:01:14;;;;;;;20.67;10.53;;;12.80;99.90;;;;;;4424355;28;657931;-71
2022/06/11 03:04:02;;;;;;;11.23;9.03;;;12.70;99.90;;;;;;4404199;28;659857;-70
2022/06/11 03:06:49;;;;;;;17.37;9.50;;;12.80;99.90;;;;;;4428155;28;657014;-71
2022/06/11 03:09:38;;;;;;;9.77;8.03;;;12.80;99.90;;;;;;4405134;28;658486;-70
2022/06/11 03:12:25;;;;;;;9.37;7.60;;;12.80;99.90;;;;;;4419957;28;656797;-70
2022/06/11 03:15:12;;;;;;;13.77;8.00;;;12.80;99.90;;;;;;4432021;28;656269;-71
2022/06/11 03:17:59;;;;;;;14.93;8.57;;;12.80;99.90;;;;;;4426717;28;658146;-70
2022/06/11 03:20:47;;;;;;;13.27;8.33;;;12.80;99.90;;;;;;4404642;28;658043;-70
2022/06/11 03:23:34;;;;;;;14.97;7.87;;;12.90;99.90;;;;;;4428730;28;657285;-71
2022/06/11 03:26:22;;;;;;;13.77;9.03;;;12.90;99.90;;;;;;4406694;28;657253;-70
2022/06/11 03:29:10;;;;;;;15.93;8.90;;;12.90;99.90;;;;;;4425023;28;657443;-71
2022/06/11 03:31:57;;;;;;;11.27;7.90;;;12.90;99.90;;;;;;4405558;28;658233;-70
2022/06/11 03:34:44;;;;;;;11.00;8.33;;;12.90;99.90;;;;;;4423987;28;657355;-71
2022/06/11 03:37:31;;;;;;;10.38;7.90;;;13.00;99.90;;;;;;4406645;28;657440;-71
2022/06/11 03:40:18;;;;;;;14.03;8.43;;;13.00;99.90;;;;;;4425494;28;658497;-70
2022/06/11 03:43:07;;;;;;;13.20;7.90;;;13.00;99.90;;;;;;4405965;28;657660;-71
2022/06/11 03:45:54;;;;;;;14.97;8.20;;;13.00;99.90;;;;;;4423747;28;657920;-70
2022/06/11 03:48:41;;;;;;;17.40;9.10;;;13.00;99.90;;;;;;4406410;28;657984;-71
2022/06/11 03:51:28;;;;;;;13.18;8.90;;;13.10;99.90;;;;;;4427635;28;658703;-70
2022/06/11 03:54:15;;;;;;;10.90;7.80;;;13.20;99.90;;;;;;4406855;28;657231;-71
2022/06/11 03:57:03;;;;;;;11.67;7.87;;;13.20;99.90;;;;;;4424682;28;658170;-70
2022/06/11 03:59:52;;;;;;;9.93;7.63;;;13.30;99.90;;;;;;4406326;28;658392;-71
2022/06/11 04:02:39;;;;;;;9.63;8.07;;;13.40;99.90;;;;;;4429044;28;656588;-70
2022/06/11 04:05:26;;;;;;;11.67;6.93;;;13.40;99.90;;;;;;4412997;28;657771;-71
2022/06/11 04:08:13;;;;;;;8.63;7.00;;;13.50;99.90;;;;;;4427230;28;658765;-70
2022/06/11 04:11:00;;;;;;;8.47;6.37;;;13.50;99.90;;;;;;4410460;28;657299;-70
2022/06/11 04:13:49;;;;;;;9.27;6.83;;;13.60;99.90;;;;;;4428531;28;656524;-70
2022/06/11 04:16:40;;;;;;;9.07;7.37;;;13.70;99.90;;;;;;4406969;28;657784;-70
2022/06/11 04:19:29;;;;;;;10.40;6.70;;;13.80;99.90;;;;;;4403192;28;656786;-71
2022/06/11 04:22:17;;;;;;;10.83;6.20;;;13.90;99.90;;;;;;4407669;28;657402;-70
2022/06/11 04:25:05;;;;;;;12.27;6.87;;;14.00;99.90;;;;;;4424595;28;657873;-71
2022/06/11 04:27:53;;;;;;;9.83;6.00;;;14.00;99.90;;;;;;4404521;28;659213;-70
2022/06/11 04:30:40;;;;;;;9.60;6.20;;;14.10;99.90;;;;;;4410105;28;657047;-71
2022/06/11 04:33:29;;;;;;;7.80;5.83;;;14.20;99.90;;;;;;4430994;28;656846;-71
2022/06/11 04:36:16;;;;;;;7.33;6.13;;;14.30;99.90;;;;;;4409430;28;656794;-71
2022/06/11 04:39:04;;;;;;;8.03;4.97;;;14.40;99.90;;;;;;4424631;28;656618;-71
2022/06/11 04:41:52;;;;;;;7.40;5.20;;;14.50;99.90;;;;;;4404724;28;657059;-70
2022/06/11 04:44:39;;;;;;;10.47;5.60;;;14.60;99.90;;;;;;4421889;28;656755;-70
2022/06/11 04:47:27;;;;;;;6.97;5.53;;;14.80;99.90;;;;;;4408725;28;658783;-70
2022/06/11 04:50:17;;;;;;;5.77;4.97;;;14.90;99.90;;;;;;4426375;28;657014;-71
2022/06/11 04:53:04;;;;;;;6.60;4.77;;;15.00;99.90;;;;;;4400685;28;656535;-71
2022/06/11 04:55:52;;;;;;;6.00;4.80;;;15.00;99.90;;;;;;4403727;28;657440;-70
2022/06/11 04:58:39;;;;;;;9.80;5.50;;;15.20;99.90;;;;;;4423286;28;656723;-70
2022/06/11 05:01:26;;;;;;;8.23;5.43;;;15.30;99.90;;;;;;4405640;28;656480;-70
2022/06/11 05:04:13;;;;;;;8.17;5.30;;;15.30;99.90;;;;;;4424843;28;657502;-70
2022/06/11 05:07:02;;;;;;;7.70;5.43;;;15.40;99.90;;;;;;4407605;28;656688;-70
2022/06/11 05:09:49;;;;;;;11.13;6.23;;;15.40;99.90;;;;;;4424441;28;657127;-70
2022/06/11 05:12:36;;;;;;;10.40;5.63;;;15.50;99.90;;;;;;4401979;28;659230;-70
2022/06/11 05:15:23;;;;;;;8.93;5.60;;;15.60;99.90;;;;;;4423548;28;657924;-71
2022/06/11 05:18:11;;;;;;;7.97;6.40;;;15.80;99.90;;;;;;4404855;28;657110;-70
2022/06/11 05:20:58;;;;;;;9.38;6.20;;;15.80;99.90;;;;;;4424019;28;656516;-70
2022/06/11 05:23:46;;;;;;;10.90;6.07;;;15.90;99.90;;;;;;4405233;28;656519;-70
2022/06/11 05:26:35;;;;;;;6.60;5.30;;;16.00;99.90;;;;;;4418063;28;659013;-70
2022/06/11 05:29:23;;;;;;;8.13;6.57;;;16.00;99.90;;;;;;4403742;28;656775;-70
2022/06/11 05:32:10;;;;;;;9.90;5.97;;;16.00;99.90;;;;;;4402250;28;656866;-70
2022/06/11 05:34:58;;;;;;;6.80;5.33;;;16.10;99.90;;;;;;4420350;28;657719;-70
2022/06/11 05:37:45;;;;;;;8.77;4.83;;;16.40;99.90;;;;;;4409438;28;656502;-70
2022/06/11 05:40:38;;;;;;;9.35;5.35;;;16.40;99.90;;;;;;4424907;28;656655;-70
2022/06/11 05:43:26;;;;;;;6.47;4.27;;;16.50;99.90;;;;;;4409334;28;657531;-70
2022/06/11 05:46:16;;;;;;;4.67;3.87;;;16.70;99.90;;;;;;4423235;28;657134;-70
2022/06/11 05:49:04;;;;;;;7.80;3.93;;;16.80;99.90;;;;;;4396852;28;657461;-70
2022/06/11 05:51:53;;;;;;;8.53;3.77;;;17.00;99.90;;;;;;4402716;28;657560;-70
2022/06/11 05:54:41;;;;;;;6.10;3.37;;;17.00;99.90;;;;;;4403215;28;656903;-70
2022/06/11 05:57:29;;;;;;;4.93;3.37;;;17.10;99.90;;;;;;4425290;28;657407;-70
2022/06/11 06:00:17;;;;;;;4.27;3.33;;;17.10;99.90;;;;;;4404788;28;656549;-70
2022/06/11 06:03:05;;;;;;;3.97;2.93;;;17.20;99.90;;;;;;4424174;28;656591;-70
2022/06/11 06:05:53;;;;;;;5.10;3.30;;;17.30;99.90;;;;;;4427093;28;657898;-70
2022/06/11 06:08:41;;;;;;;5.03;3.50;;;17.30;99.90;;;;;;4402377;28;656619;-70
2022/06/11 06:11:28;;;;;;;4.97;3.40;;;17.50;99.90;;;;;;4419419;28;656221;-70
2022/06/11 06:14:17;;;;;;;7.03;3.30;;;17.50;99.90;;;;;;4404106;28;656881;-70
2022/06/11 06:17:04;;;;;;;4.43;2.93;;;17.60;99.90;;;;;;4423084;28;656898;-70
2022/06/11 06:19:51;;;;;;;5.50;3.13;;;17.50;99.90;;;;;;4400192;28;656906;-70
2022/06/11 06:22:38;;;;;;;4.20;2.73;;;17.70;99.90;;;;;;4428178;28;657172;-70
2022/06/11 06:25:26;;;;;;;5.03;3.20;;;17.60;99.90;;;;;;4405256;28;656959;-70
2022/06/11 06:28:13;;;;;;;3.87;2.80;;;17.40;99.90;;;;;;4426210;28;657396;-69
2022/06/11 06:31:02;;;;;;;2.97;2.53;;;17.40;99.90;;;;;;4408427;28;656406;-69
2022/06/11 06:33:50;;;;;;;7.93;3.03;;;17.50;99.90;;;;;;4432163;28;655948;-69
2022/06/11 06:36:37;;;;;;;3.80;2.80;;;18.00;99.90;;;;;;4403910;28;657533;-69
2022/06/11 06:39:25;;;;;;;4.70;2.60;;;18.20;99.90;;;;;;4430729;28;657515;-69
2022/06/11 06:42:12;;;;;;;2.63;2.30;;;18.40;99.90;;;;;;4428854;28;656717;-69
2022/06/11 06:45:00;;;;;;;5.80;2.80;;;18.40;99.90;;;;;;4423360;28;656899;-69
2022/06/11 06:47:48;;;;;;;6.40;2.57;;;18.00;99.90;;;;;;4410892;28;657486;-69
2022/06/11 06:50:35;;;;;;;3.90;2.83;;;17.80;99.90;;;;;;4404300;28;656849;-69
2022/06/11 06:53:22;;;;;;;6.50;2.37;;;17.50;99.90;;;;;;4426834;28;657632;-68
2022/06/11 06:56:10;;;;;;;4.73;2.30;;;17.50;99.90;;;;;;4421392;28;656803;-68
2022/06/11 06:58:58;;;;;;;2.27;2.07;;;17.40;99.90;;;;;;4425572;28;658052;-68
2022/06/11 07:01:45;;;;;;;9.93;2.77;;;17.30;99.90;;;;;;4405331;28;656948;-68
2022/06/11 07:04:34;;;;;;;5.07;2.30;;;17.40;99.90;;;;;;4430462;28;656595;-69
2022/06/11 07:07:21;;;;;;;2.47;1.90;;;17.40;99.90;;;;;;4402600;28;656715;-69
2022/06/11 07:10:09;;;;;;;4.17;1.70;;;17.80;99.90;;;;;;4428891;28;657021;-68
2022/06/11 07:12:56;;;;;;;3.67;1.70;;;18.50;99.90;;;;;;4406947;28;657583;-68
2022/06/11 07:15:43;;;;;;;4.70;1.73;;;19.10;99.90;;;;;;4428932;28;657028;-69
2022/06/11 07:18:31;;;;;;;3.63;1.57;;;19.60;99.90;;;;;;4408013;28;656404;-69
2022/06/11 07:21:21;;;;;;;2.90;1.77;;;20.00;98.30;;;;;;4425751;28;657415;-69
2022/06/11 07:24:10;;;;;;;5.83;1.70;;;20.10;98.20;;;;;;4407764;28;656795;-67
2022/06/11 07:26:59;;;;;;;4.03;1.50;;;19.80;92.80;;;;;;4401948;28;657744;-69
2022/06/11 07:29:48;;;;;;;3.37;1.63;;;19.70;95.50;;;;;;4406801;28;656487;-69
2022/06/11 07:32:36;;;;;;;2.67;1.67;;;19.30;94.80;;;;;;4405888;28;657358;-68
2022/06/11 07:35:23;;;;;;;7.30;1.60;;;19.10;98.90;;;;;;4432761;28;657902;-69
2022/06/11 07:38:15;;;;;;;3.30;1.50;;;18.80;98.10;;;;;;4408827;28;656839;-68
2022/06/11 07:41:02;;;;;;;4.20;1.60;;;18.90;97.50;;;;;;4403471;28;657562;-69
2022/06/11 07:43:49;;;;;;;5.10;1.90;;;18.90;99.90;;;;;;4428123;28;656457;-68
2022/06/11 07:46:36;;;;;;;2.77;1.30;;;19.50;99.90;;;;;;4402895;28;656549;-68
2022/06/11 07:49:24;;;;;;;1.90;1.40;;;19.70;92.70;;;;;;4415434;28;657275;-68
2022/06/11 07:52:11;;;;;;;4.50;1.47;;;20.40;94.80;;;;;;4400676;28;656480;-69
2022/06/11 07:54:59;;;;;;;6.50;1.80;;;20.60;93.10;;;;;;4431194;28;657038;-68
2022/06/11 07:57:46;;;;;;;5.07;2.10;;;20.50;92.30;;;;;;4410724;28;656842;-69
2022/06/11 08:00:35;;;;;;;7.27;2.40;;;20.30;91.30;;;;;;4419531;28;657051;-68
2022/06/11 08:03:22;;;;;;;3.57;1.90;;;20.60;97.40;;;;;;4403151;28;657279;-68
2022/06/11 08:06:09;;;;;;;2.80;1.90;;;20.50;96.80;;;;;;4424081;28;656703;-68
2022/06/11 08:08:57;;;;;;;5.43;2.10;;;20.20;94.80;;;;;;4407356;28;657539;-68
2022/06/11 08:11:45;;;;;;;6.57;2.30;;;19.40;93.10;;;;;;4421986;28;656441;-68
2022/06/11 08:14:32;;;;;;;4.97;1.70;;;19.40;94.50;;;;;;4403317;28;657467;-68
2022/06/11 08:17:19;;;;;;;6.83;1.77;;;19.80;96.10;;;;;;4418566;28;657705;-68
2022/06/11 08:20:07;;;;;;;4.90;1.60;;;20.20;95.10;;;;;;4403624;28;656655;-68
2022/06/11 08:22:54;;;;;;;4.03;1.67;;;20.30;93.40;;;;;;4428036;28;656800;-68
2022/06/11 08:25:41;;;;;;;5.67;1.57;;;19.80;89.10;;;;;;4415305;28;656244;-68
2022/06/11 08:28:30;;;;;;;5.23;1.47;;;19.60;91.50;;;;;;4427899;28;656638;-68
2022/06/11 08:31:17;;;;;;;4.07;1.60;;;19.60;90.00;;;;;;4404682;28;657112;-68
2022/06/11 08:34:04;;;;;;;1.63;1.10;;;19.40;91.30;;;;;;4423244;28;657222;-68
2022/06/11 08:36:51;;;;;;;2.67;1.50;;;20.10;91.50;;;;;;4414451;28;656608;-68
2022/06/11 08:39:39;;;;;;;2.43;1.30;;;20.80;90.30;;;;;;4414458;28;656244;-68
2022/06/11 08:42:31;;;;;;;3.93;1.40;;;20.70;88.00;;;;;;4394915;28;659351;-68
2022/06/11 08:45:21;;;;;;;3.20;1.20;;;20.90;79.50;;;;;;4396947;28;656632;-68
2022/06/11 08:48:18;;;;;;;3.00;1.50;;;21.10;81.40;;;;;;4404604;28;656678;-68
2022/06/11 08:51:10;;;;;;;1.53;1.20;;;21.50;84.20;;;;;;4385800;28;657072;-68
2022/06/11 08:53:58;;;;;;;3.37;1.23;;;21.70;84.20;;;;;;4389972;28;657460;-68
2022/06/11 08:56:49;;;;;;;5.33;1.40;;;21.70;81.00;;;;;;4394971;28;657001;-68
2022/06/11 08:59:49;;;;;;;4.00;1.50;;;21.50;75.90;;;;;;4406066;28;656722;-68
2022/06/11 09:02:52;;;;;;;2.53;1.37;;;21.60;87.30;;;;;;4391653;28;658849;-68
2022/06/11 09:05:49;;;;;;;1.97;1.37;;;22.20;79.90;;;;;;4422304;28;657321;-68
2022/06/11 09:08:43;;;;;;;1.93;1.20;;;21.80;76.30;;;;;;4394220;28;656586;-68
2022/06/11 09:11:39;;;;;;;3.57;1.40;;;21.40;75.40;;;;;;4379731;28;656568;-68
2022/06/11 09:14:39;;;;;;;5.13;1.57;;;21.80;82.60;;;;;;4398808;28;656613;-68
2022/06/11 09:17:44;;;;;;;2.37;1.30;;;21.90;76.40;;;;;;4398913;28;656984;-68
2022/06/11 09:20:38;;;;;;;5.17;1.50;;;22.50;74.50;;;;;;4400074;28;656940;-68
2022/06/11 09:23:45;;;;;;;4.40;1.30;;;22.30;81.80;;;;;;4390306;28;657385;-68
2022/06/11 09:26:40;;;;;;;3.85;1.27;;;22.30;77.60;;;;;;4365752;28;656631;-68
2022/06/11 09:29:30;;;;;;;2.67;1.30;;;23.20;80.40;;;;;;4371758;28;658230;-68
2022/06/11 09:32:20;;;;;;;1.20;1.10;;;23.20;75.20;;;;;;4391266;28;656404;-68
2022/06/11 09:35:10;;;;;;;1.13;0.97;;;22.60;70.00;;;;;;4387764;28;657560;-68
2022/06/11 09:38:05;;;;;;;2.45;1.10;;;22.70;67.60;;;;;;4395265;28;657763;-68
2022/06/11 09:40:55;;;;;;;2.58;1.23;;;22.60;72.70;;;;;;4400209;28;658582;-68
2022/06/11 09:43:45;;;;;;;6.77;1.20;;;22.20;70.00;;;;;;4398085;28;657127;-68
2022/06/11 09:46:37;;;;;;;1.77;1.10;;;21.80;72.00;;;;;;4388472;28;657542;-67
2022/06/11 09:49:29;;;;;;;4.80;1.10;;;22.20;77.40;;;;;;4400172;28;656731;-66
2022/06/11 09:52:20;;;;;;;2.13;1.10;;;21.70;72.80;;;;;;4386037;28;656902;-68
2022/06/11 09:55:18;;;;;;;3.67;1.73;;;22.00;75.60;;;;;;4404106;28;657057;-67
2022/06/11 09:58:08;;;;;;;5.22;1.08;;;22.10;73.90;;;;;;4377058;28;656787;-68
2022/06/11 10:00:57;;;;;;;1.30;1.00;;;22.30;69.00;;;;;;4407713;28;656128;-68
2022/06/11 10:03:50;;;;;;;4.23;1.57;;;22.60;70.40;;;;;;4429051;28;656828;-68
2022/06/11 10:06:39;;;;;;;4.17;1.47;;;22.70;70.70;;;;;;4403728;28;657297;-67
2022/06/11 10:09:28;;;;;;;1.63;1.00;;;22.20;69.80;;;;;;4396387;28;656455;-67
2022/06/11 10:12:19;;;;;;;1.23;1.00;;;22.40;66.60;;;;;;4409981;28;657568;-67
2022/06/11 10:15:10;;;;;;;3.37;1.00;;;22.70;69.80;;;;;;4406370;28;656804;-67
2022/06/11 10:18:00;;;;;;;4.23;1.13;;;22.40;68.50;;;;;;4397838;28;657371;-67
2022/06/11 10:20:49;;;;;;;2.30;1.00;;;22.70;70.20;;;;;;4404763;28;657523;-67
2022/06/11 10:23:37;;;;;;;3.57;1.10;;;22.30;69.90;;;;;;4404495;28;656716;-67
2022/06/11 10:26:26;;;;;;;1.60;1.07;;;22.90;71.70;;;;;;4428405;28;656348;-67
2022/06/11 10:29:17;;;;;;;1.50;1.25;;;23.10;68.40;;;;;;4397882;28;656891;-67
2022/06/11 10:32:08;;;;;;;3.55;1.30;;;23.20;69.00;;;;;;4424072;28;656808;-67
2022/06/11 10:34:59;;;;;;;1.00;0.85;;;23.00;65.60;;;;;;4417590;28;656332;-67
2022/06/11 10:37:48;;;;;;;7.13;1.23;;;22.80;68.00;;;;;;4407380;28;656484;-67
2022/06/11 10:40:38;;;;;;;3.05;0.90;;;23.20;70.00;;;;;;4406012;28;656536;-67
2022/06/11 10:43:29;;;;;;;6.85;1.20;;;23.70;67.80;;;;;;4408764;28;656916;-67
2022/06/11 10:46:18;;;;;;;2.25;0.90;;;23.70;67.30;;;;;;4405446;28;658015;-66
2022/06/11 10:49:08;;;;;;;2.13;1.13;;;23.70;67.70;;;;;;4408606;28;656826;-66
2022/06/11 10:51:59;;;;;;;3.53;1.00;;;24.20;68.70;;;;;;4395784;28;657390;-66
2022/06/11 10:54:47;;;;;;;2.30;0.90;;;23.40;63.90;;;;;;4406169;28;657052;-67
2022/06/11 10:57:34;;;;;;;5.20;0.85;;;23.80;68.70;;;;;;4425474;28;657707;-67
2022/06/11 11:00:23;;;;;;;3.03;1.05;;;24.20;63.90;;;;;;4397810;28;656746;-66
2022/06/11 11:03:15;;;;;;;1.98;1.40;;;24.20;63.80;;;;;;4388818;28;656971;-66
2022/06/11 11:06:04;;;;;;;1.00;0.90;;;24.10;60.90;;;;;;4392540;28;656669;-66
2022/06/11 11:08:52;;;;;;;5.25;1.30;;;23.80;64.00;;;;;;4384388;28;656378;-66
2022/06/11 11:11:41;;;;;;;1.45;1.10;;;24.50;63.30;;;;;;4422722;28;656376;-67
2022/06/11 11:14:31;;;;;;;1.27;1.10;;;25.00;65.50;;;;;;4410043;28;657007;-66
2022/06/11 11:17:19;;;;;;;4.53;1.20;;;24.60;64.90;;;;;;4406244;28;657387;-66
2022/06/11 11:20:32;;;;;;;2.95;1.10;;;25.20;64.80;;;;;;4407890;28;656667;-66
2022/06/11 11:23:21;;;;;;;3.58;1.30;;;24.80;65.80;;;;;;4399745;28;657076;-66
2022/06/11 11:26:13;;;;;;;2.38;1.30;;;25.20;68.20;;;;;;4405346;28;656977;-66
2022/06/11 11:29:03;;;;;;;3.00;1.00;;;24.80;64.10;;;;;;4394680;28;656731;-67
2022/06/11 11:31:51;;;;;;;3.22;1.00;;;24.70;65.20;;;;;;4414576;28;656182;-67
2022/06/11 11:34:43;;;;;;;3.72;1.20;;;24.30;64.50;;;;;;4428787;28;657530;-66
2022/06/11 11:37:34;;;;;;;3.30;1.23;;;24.50;67.30;;;;;;4387182;28;656805;-66
2022/06/11 11:40:25;;;;;;;3.60;1.35;;;24.80;64.70;;;;;;4401817;28;656876;-66
2022/06/11 11:43:12;;;;;;;1.65;1.25;;;24.30;62.00;;;;;;4402980;28;657579;-66
2022/06/11 11:46:00;;;;;;;2.83;1.20;;;24.30;64.30;;;;;;4425645;28;656739;-67
2022/06/11 11:48:49;;;;;;;6.57;1.33;;;24.50;66.30;;;;;;4403672;28;657107;-66
2022/06/11 11:51:37;;;;;;;8.20;1.67;;;24.10;63.00;;;;;;4406011;28;656612;-67
2022/06/11 11:54:27;;;;;;;1.75;1.10;;;24.20;66.80;;;;;;4427165;28;657111;-66
2022/06/11 11:57:15;;;;;;;3.00;1.10;;;24.00;63.40;;;;;;4424619;28;656546;-66
2022/06/11 12:00:05;;;;;;;4.65;1.27;;;24.10;63.50;;;;;;4424939;28;657300;-66
2022/06/11 12:02:54;;;;;;;3.08;1.30;;;24.30;63.90;;;;;;4401527;28;657552;-67
2022/06/11 12:05:49;;;;;;;3.00;1.20;;;25.20;65.10;;;;;;4398853;28;657835;-67
2022/06/11 12:08:37;;;;;;;3.35;1.33;;;25.10;62.80;;;;;;4406951;28;656449;-67
2022/06/11 12:11:36;;;;;;;3.97;1.33;;;24.80;61.40;;;;;;4421030;28;656982;-66
2022/06/11 12:15:00;;;;;;;1.70;1.30;;;25.00;62.50;;;;;;4412698;28;657606;-66
2022/06/11 12:17:49;;;;;;;2.60;1.30;;;24.90;62.30;;;;;;4377956;28;656855;-66
2022/06/11 12:20:39;;;;;;;4.57;1.42;;;25.00;62.80;;;;;;4412860;28;656834;-66
2022/06/11 12:23:30;;;;;;;6.53;1.30;;;24.90;58.70;;;;;;4408646;28;656351;-66
2022/06/11 12:26:18;;;;;;;3.47;1.17;;;25.40;65.90;;;;;;4400335;28;659221;-67
2022/06/11 12:29:11;;;;;;;2.10;1.30;;;25.10;59.90;;;;;;4396462;28;656323;-66
2022/06/11 12:32:01;;;;;;;5.30;1.63;;;25.10;61.30;;;;;;4400934;28;656321;-66
2022/06/11 12:34:49;;;;;;;4.85;1.38;;;25.30;67.30;;;;;;4394297;28;657105;-66
2022/06/11 12:37:39;;;;;;;2.38;1.40;;;25.20;61.60;;;;;;4405068;28;656985;-66
2022/06/11 12:40:29;;;;;;;3.70;1.30;;;25.30;63.90;;;;;;4396667;28;656526;-67
2022/06/11 12:43:32;;;;;;;4.15;1.30;;;25.40;63.40;;;;;;4398904;28;656677;-66
2022/06/11 12:46:25;;;;;;;3.72;1.73;;;25.80;62.00;;;;;;4403945;28;656660;-66
2022/06/11 12:49:17;;;;;;;2.53;1.08;;;25.50;59.90;;;;;;4403852;28;657236;-66
2022/06/11 12:52:12;;;;;;;1.20;1.10;;;25.50;60.10;;;;;;4398336;28;656529;-66
2022/06/11 12:55:09;;;;;;;3.28;1.30;;;25.80;61.90;;;;;;4397143;28;656837;-66
2022/06/11 12:57:59;;;;;;;2.45;1.45;;;25.50;59.30;;;;;;4406537;28;656372;-66
2022/06/11 13:00:49;;;;;;;8.23;1.40;;;25.80;61.70;;;;;;4400452;28;656415;-67
2022/06/11 13:03:59;;;;;;;1.90;1.20;;;25.60;63.70;;;;;;4401878;28;656939;-66
2022/06/11 13:06:51;;;;;;;3.00;1.40;;;25.60;58.80;;;;;;4377592;28;656733;-66
2022/06/11 13:09:54;;;;;;;2.92;1.20;;;25.10;60.40;;;;;;4395681;28;656912;-65
2022/06/11 13:12:51;;;;;;;3.78;1.50;;;25.40;62.70;;;;;;4379158;28;657248;-65
2022/06/11 13:15:47;;;;;;;2.95;1.25;;;25.50;62.50;;;;;;4396050;28;658912;-66
2022/06/11 13:19:02;;;;;;;2.72;1.27;;;25.60;64.60;;;;;;4401276;28;656665;-66
2022/06/11 13:21:53;;;;;;;2.67;1.27;;;26.00;64.10;;;;;;4392474;28;656304;-66
2022/06/11 13:24:42;;;;;;;1.58;1.25;;;26.40;61.40;;;;;;4390511;28;656712;-66
2022/06/11 13:27:38;;;;;;;2.33;1.25;;;25.90;61.80;;;;;;4421719;28;656734;-66
2022/06/11 13:30:35;;;;;;;3.08;1.30;;;26.10;60.40;;;;;;4389202;28;656823;-65
2022/06/11 13:33:40;;;;;;;7.22;1.33;;;24.80;60.70;;;;;;4405933;28;656708;-65
2022/06/11 13:36:35;;;;;;;1.50;1.40;;;24.60;61.40;;;;;;4376424;28;657388;-65
2022/06/11 13:39:30;;;;;;;4.53;1.60;;;25.50;62.00;;;;;;4387165;28;657466;-66
2022/06/11 13:42:24;;;;;;;7.38;1.42;;;26.00;60.30;;;;;;4387717;28;656720;-66
2022/06/11 13:45:32;;;;;;;6.45;1.50;;;26.40;61.90;;;;;;4412924;28;656276;-66
2022/06/11 13:48:24;;;;;;;5.35;1.30;;;26.50;60.70;;;;;;4402391;28;657717;-66
2022/06/11 13:51:15;;;;;;;4.88;1.60;;;26.30;56.20;;;;;;4406776;28;656796;-66
2022/06/11 13:57:28;;;;;;;13.13;2.63;;;26.70;59.80;;;;;;4403568;28;656401;-66
2022/06/11 14:00:40;;;;;;;4.18;2.00;;;26.00;59.20;;;;;;4385306;28;657792;-66
2022/06/11 14:03:52;;;;;;;1.65;1.25;;;24.70;61.20;;;;;;4378446;28;657149;-66
2022/06/11 14:06:39;;;;;;;4.88;1.67;;;24.20;62.60;;;;;;4407925;28;657839;-66
2022/06/11 14:12:47;;;;;;;5.25;1.73;;;25.70;61.40;;;;;;4404484;28;656616;-66
2022/06/11 14:15:43;;;;;;;1.40;1.20;;;26.60;61.50;;;;;;4401947;28;657196;-65
2022/06/11 14:18:39;;;;;;;2.80;1.52;;;25.40;61.10;;;;;;4430446;28;656772;-66
2022/06/11 14:21:50;;;;;;;12.07;1.80;;;24.20;60.50;;;;;;4390726;28;656816;-66
2022/06/11 14:24:58;;;;;;;2.33;1.38;;;24.70;65.80;;;;;;4373417;28;658728;-66
2022/06/11 14:27:46;;;;;;;7.38;1.70;;;25.40;62.20;;;;;;4383771;28;657287;-66
2022/06/11 14:30:33;;;;;;;4.88;1.50;;;25.70;63.70;;;;;;4428159;28;657002;-66
2022/06/11 14:33:24;;;;;;;4.55;1.48;;;25.60;62.40;;;;;;4403302;28;656639;-66
2022/06/11 14:36:23;;;;;;;2.20;1.30;;;25.70;58.70;;;;;;4404282;28;657321;-66
2022/06/11 14:39:29;;;;;;;7.68;1.60;;;25.90;59.10;;;;;;4382833;28;656376;-67